Time,TemperatureF,DewpointF,PressureIn,WindDirection,WindDirectionDegrees,WindSpeedMPH,WindSpeedGustMPH,Humidity,HourlyPrecipIn,Conditions,Clouds,dailyrainin,SoftwareType,DateUTC
2013-11-20 00:11:00,30.5,16.0,30.27,NNW,327,0.0,4.0,55,0.00,,,0.00,weatherlink.com 1.10,2013-11-20 05:11:00,
2013-11-20 00:26:00,30.1,16.0,30.27,WNW,299,1.0,6.0,56,0.00,,,0.00,weatherlink.com 1.10,2013-11-20 05:26:00,
2013-11-20 00:41:00,30.2,16.0,30.29,West,277,3.0,10.0,55,0.00,,,0.00,weatherlink.com 1.10,2013-11-20 05:41:00,
2013-11-20 00:56:00,30.0,16.0,30.29,NNE,17,0.0,7.0,56,0.00,,,0.00,weatherlink.com 1.10,2013-11-20 05:56:00,
2013-11-20 01:11:00,29.7,16.0,30.30,West,279,0.0,6.0,57,0.00,,,0.00,weatherlink.com 1.10,2013-11-20 06:11:00,
2013-11-20 01:26:00,29.7,16.0,30.30,WNW,295,1.0,4.0,57,0.00,,,0.00,weatherlink.com 1.10,2013-11-20 06:26:00,
2013-11-20 01:41:00,29.5,16.0,30.32,NW,317,2.0,5.0,57,0.00,,,0.00,weatherlink.com 1.10,2013-11-20 06:41:00,
2013-11-20 01:56:00,29.5,16.0,30.32,WSW,249,1.0,2.0,57,0.00,,,0.00,weatherlink.com 1.10,2013-11-20 06:56:00,
2013-11-20 02:11:00,29.4,16.0,30.32,WNW,299,0.0,4.0,57,0.00,,,0.00,weatherlink.com 1.10,2013-11-20 07:11:00,
2013-11-20 02:26:00,29.6,16.0,30.33,WNW,294,1.0,6.0,56,0.00,,,0.00,weatherlink.com 1.10,2013-11-20 07:26:00,
2013-11-20 02:41:00,29.4,15.0,30.33,SW,221,0.0,5.0,56,0.00,,,0.00,weatherlink.com 1.10,2013-11-20 07:41:00,
2013-11-20 02:56:00,29.3,15.0,30.33,NNW,331,1.0,3.0,56,0.00,,,0.00,weatherlink.com 1.10,2013-11-20 07:56:00,
2013-11-20 03:11:00,29.1,15.0,30.34,NW,309,3.0,4.0,55,0.00,,,0.00,weatherlink.com 1.10,2013-11-20 08:11:00,
2013-11-20 03:27:00,29.2,15.0,30.34,NNW,341,4.0,7.0,55,0.00,,,0.00,weatherlink.com 1.10,2013-11-20 08:27:00,
2013-11-20 03:42:00,29.0,15.0,30.35,ESE,103,0.0,4.0,55,0.00,,,0.00,weatherlink.com 1.10,2013-11-20 08:42:00,
2013-11-20 03:57:00,29.2,15.0,30.36,NW,317,0.0,6.0,55,0.00,,,0.00,weatherlink.com 1.10,2013-11-20 08:57:00,
2013-11-20 04:12:00,29.0,15.0,30.37,NW,326,3.0,7.0,56,0.00,,,0.00,weatherlink.com 1.10,2013-11-20 09:12:00,
2013-11-20 04:27:00,28.9,15.0,30.37,NW,321,1.0,7.0,56,0.00,,,0.00,weatherlink.com 1.10,2013-11-20 09:27:00,
2013-11-20 04:42:00,28.9,15.0,30.37,NNW,332,0.0,8.0,57,0.00,,,0.00,weatherlink.com 1.10,2013-11-20 09:42:00,
2013-11-20 04:57:00,28.6,15.0,30.39,WNW,300,0.0,4.0,58,0.00,,,0.00,weatherlink.com 1.10,2013-11-20 09:57:00,
2013-11-20 05:12:00,28.6,15.0,30.39,NNW,333,0.0,7.0,58,0.00,,,0.00,weatherlink.com 1.10,2013-11-20 10:12:00,
2013-11-20 05:27:00,28.4,15.0,30.40,NNW,344,0.0,6.0,58,0.00,,,0.00,weatherlink.com 1.10,2013-11-20 10:27:00,
2013-11-20 05:42:00,28.3,15.0,30.41,NW,323,0.0,6.0,59,0.00,,,0.00,weatherlink.com 1.10,2013-11-20 10:42:00,
2013-11-20 05:57:00,28.1,16.0,30.42,WNW,299,0.0,3.0,60,0.00,,,0.00,weatherlink.com 1.10,2013-11-20 10:57:00,
2013-11-20 06:12:00,27.7,16.0,30.43,West,262,0.0,1.0,61,0.00,,,0.00,weatherlink.com 1.10,2013-11-20 11:12:00,
2013-11-20 06:27:00,27.2,16.0,30.44,NNE,19,0.0,1.0,62,0.00,,,0.00,weatherlink.com 1.10,2013-11-20 11:27:00,
2013-11-20 06:42:00,27.2,16.0,30.45,WNW,303,3.0,4.0,62,0.00,,,0.00,weatherlink.com 1.10,2013-11-20 11:42:00,
2013-11-20 06:57:00,27.4,16.0,30.45,North,350,0.0,3.0,62,0.00,,,0.00,weatherlink.com 1.10,2013-11-20 11:57:00,
2013-11-20 07:12:00,27.7,16.0,30.46,WNW,294,0.0,5.0,61,0.00,,,0.00,weatherlink.com 1.10,2013-11-20 12:12:00,
2013-11-20 07:27:00,28.4,16.0,30.46,WNW,286,0.0,5.0,59,0.00,,,0.00,weatherlink.com 1.10,2013-11-20 12:27:00,
2013-11-20 07:42:00,29.2,16.0,30.47,WNW,294,0.0,4.0,57,0.00,,,0.00,weatherlink.com 1.10,2013-11-20 12:42:00,
2013-11-20 07:57:00,30.0,15.0,30.48,NNW,333,2.0,7.0,55,0.00,,,0.00,weatherlink.com 1.10,2013-11-20 12:57:00,
2013-11-20 08:12:00,30.6,16.0,30.48,NE,46,0.0,10.0,54,0.00,,,0.00,weatherlink.com 1.10,2013-11-20 13:12:00,
2013-11-20 08:27:00,31.1,15.0,30.50,West,267,2.0,13.0,52,0.00,,,0.00,weatherlink.com 1.10,2013-11-20 13:27:00,
2013-11-20 08:42:00,31.9,15.0,30.50,NW,313,3.0,11.0,51,0.00,,,0.00,weatherlink.com 1.10,2013-11-20 13:42:00,
2013-11-20 08:57:00,32.5,15.0,30.51,North,351,7.0,11.0,49,0.00,,,0.00,weatherlink.com 1.10,2013-11-20 13:57:00,
2013-11-20 09:12:00,33.7,16.0,30.51,NNW,329,3.0,7.0,48,0.00,,,0.00,weatherlink.com 1.10,2013-11-20 14:12:00,
2013-11-20 09:27:00,34.2,15.0,30.51,North,5,4.0,10.0,46,0.00,,,0.00,weatherlink.com 1.10,2013-11-20 14:27:00,
2013-11-20 09:42:00,34.3,15.0,30.51,NNW,327,4.0,10.0,45,0.00,,,0.00,weatherlink.com 1.10,2013-11-20 14:42:00,
2013-11-20 09:58:00,35.1,15.0,30.52,North,11,1.0,8.0,43,0.00,,,0.00,weatherlink.com 1.10,2013-11-20 14:58:00,
2013-11-20 10:13:00,36.0,15.0,30.53,NW,310,3.0,9.0,42,0.00,,,0.00,weatherlink.com 1.10,2013-11-20 15:13:00,
2013-11-20 10:28:00,37.0,15.0,30.52,NNW,344,3.0,5.0,40,0.00,,,0.00,weatherlink.com 1.10,2013-11-20 15:28:00,
2013-11-20 10:43:00,37.4,14.0,30.52,NNW,331,2.0,6.0,39,0.00,,,0.00,weatherlink.com 1.10,2013-11-20 15:43:00,
2013-11-20 10:58:00,37.3,14.0,30.52,NW,307,3.0,9.0,38,0.00,,,0.00,weatherlink.com 1.10,2013-11-20 15:58:00,
2013-11-20 11:13:00,38.1,14.0,30.51,NW,317,3.0,6.0,37,0.00,,,0.00,weatherlink.com 1.10,2013-11-20 16:13:00,
2013-11-20 11:28:00,38.5,14.0,30.51,NNW,348,1.0,6.0,37,0.00,,,0.00,weatherlink.com 1.10,2013-11-20 16:28:00,
2013-11-20 11:43:00,38.7,13.0,30.50,NNW,341,1.0,9.0,35,0.00,,,0.00,weatherlink.com 1.10,2013-11-20 16:43:00,
2013-11-20 11:58:00,39.4,12.0,30.51,NNW,333,1.0,9.0,33,0.00,,,0.00,weatherlink.com 1.10,2013-11-20 16:58:00,
2013-11-20 12:13:00,39.9,13.0,30.51,WNW,288,1.0,7.0,34,0.00,,,0.00,weatherlink.com 1.10,2013-11-20 17:13:00,
2013-11-20 12:28:00,40.1,13.0,30.51,NW,325,3.0,5.0,33,0.00,,,0.00,weatherlink.com 1.10,2013-11-20 17:28:00,
2013-11-20 12:43:00,40.2,13.0,30.51,ENE,66,2.0,5.0,33,0.00,,,0.00,weatherlink.com 1.10,2013-11-20 17:43:00,
2013-11-20 12:58:00,40.8,13.0,30.51,West,269,2.0,5.0,32,0.00,,,0.00,weatherlink.com 1.10,2013-11-20 17:58:00,
2013-11-20 13:13:00,40.5,13.0,30.50,NNE,12,3.0,7.0,32,0.00,,,0.00,weatherlink.com 1.10,2013-11-20 18:13:00,
2013-11-20 13:28:00,40.9,13.0,30.50,WNW,294,1.0,4.0,32,0.00,,,0.00,weatherlink.com 1.10,2013-11-20 18:28:00,
2013-11-20 13:43:00,41.1,13.0,30.50,WNW,302,0.0,6.0,32,0.00,,,0.00,weatherlink.com 1.10,2013-11-20 18:43:00,
2013-11-20 13:58:00,41.7,12.0,30.50,NNW,327,2.0,4.0,30,0.00,,,0.00,weatherlink.com 1.10,2013-11-20 18:58:00,
2013-11-20 14:13:00,42.5,13.0,30.51,North,10,2.0,4.0,30,0.00,,,0.00,weatherlink.com 1.10,2013-11-20 19:13:00,
2013-11-20 14:28:00,42.0,13.0,30.51,WNW,297,0.0,8.0,30,0.00,,,0.00,weatherlink.com 1.10,2013-11-20 19:28:00,
2013-11-20 14:43:00,42.0,13.0,30.51,NNW,342,1.0,5.0,30,0.00,,,0.00,weatherlink.com 1.10,2013-11-20 19:43:00,
2013-11-20 14:58:00,42.0,13.0,30.51,NNW,341,2.0,3.0,30,0.00,,,0.00,weatherlink.com 1.10,2013-11-20 19:58:00,
2013-11-20 15:13:00,41.8,12.0,30.52,NNW,342,1.0,4.0,30,0.00,,,0.00,weatherlink.com 1.10,2013-11-20 20:13:00,
2013-11-20 15:28:00,41.5,12.0,30.52,WNW,286,0.0,4.0,30,0.00,,,0.00,weatherlink.com 1.10,2013-11-20 20:28:00,
2013-11-20 15:43:00,40.6,13.0,30.53,NW,326,2.0,5.0,32,0.00,,,0.00,weatherlink.com 1.10,2013-11-20 20:43:00,
2013-11-20 15:58:00,39.7,13.0,30.52,WNW,302,0.0,3.0,33,0.00,,,0.00,weatherlink.com 1.10,2013-11-20 20:58:00,
2013-11-20 16:13:00,38.9,13.0,30.53,West,273,0.0,3.0,34,0.00,,,0.00,weatherlink.com 1.10,2013-11-20 21:13:00,
2013-11-20 16:28:00,38.1,13.0,30.53,NNE,16,0.0,2.0,35,0.00,,,0.00,weatherlink.com 1.10,2013-11-20 21:28:00,
2013-11-20 16:43:00,36.7,13.0,30.54,NNE,16,0.0,0.0,38,0.00,,,0.00,weatherlink.com 1.10,2013-11-20 21:43:00,
2013-11-20 16:58:00,35.3,14.0,30.54,NNE,16,0.0,1.0,42,0.00,,,0.00,weatherlink.com 1.10,2013-11-20 21:58:00,
2013-11-20 17:13:00,34.1,14.0,30.55,NNE,16,0.0,1.0,44,0.00,,,0.00,weatherlink.com 1.10,2013-11-20 22:13:00,
2013-11-20 17:28:00,33.1,14.0,30.55,NNE,14,0.0,1.0,46,0.00,,,0.00,weatherlink.com 1.10,2013-11-20 22:28:00,
2013-11-20 17:43:00,32.7,15.0,30.56,NNE,14,0.0,0.0,49,0.00,,,0.00,weatherlink.com 1.10,2013-11-20 22:43:00,
2013-11-20 17:58:00,32.0,14.0,30.56,NNE,15,0.0,0.0,48,0.00,,,0.00,weatherlink.com 1.10,2013-11-20 22:58:00,
2013-11-20 18:13:00,31.4,14.0,30.57,NNE,14,0.0,0.0,49,0.00,,,0.00,weatherlink.com 1.10,2013-11-20 23:13:00,
2013-11-20 18:28:00,31.0,16.0,30.57,NNE,14,0.0,0.0,53,0.00,,,0.00,weatherlink.com 1.10,2013-11-20 23:28:00,
2013-11-20 18:43:00,29.9,15.0,30.57,NNE,15,0.0,0.0,55,0.00,,,0.00,weatherlink.com 1.10,2013-11-20 23:43:00,
2013-11-20 18:58:00,29.2,16.0,30.58,NNE,15,0.0,0.0,57,0.00,,,0.00,weatherlink.com 1.10,2013-11-20 23:58:00,
2013-11-20 19:13:00,28.9,16.0,30.59,NNE,15,0.0,0.0,59,0.00,,,0.00,weatherlink.com 1.10,2013-11-21 00:13:00,
2013-11-20 19:28:00,28.5,16.0,30.59,NNE,15,0.0,0.0,60,0.00,,,0.00,weatherlink.com 1.10,2013-11-21 00:28:00,
2013-11-20 19:43:00,28.1,16.0,30.59,NNE,15,0.0,0.0,61,0.00,,,0.00,weatherlink.com 1.10,2013-11-21 00:43:00,
2013-11-20 19:58:00,27.8,16.0,30.59,NNE,14,0.0,0.0,62,0.00,,,0.00,weatherlink.com 1.10,2013-11-21 00:58:00,
2013-11-20 20:13:00,27.8,16.0,30.59,NNE,15,0.0,0.0,61,0.00,,,0.00,weatherlink.com 1.10,2013-11-21 01:13:00,
2013-11-20 20:28:00,27.9,16.0,30.59,NNE,15,0.0,1.0,61,0.00,,,0.00,weatherlink.com 1.10,2013-11-21 01:28:00,
2013-11-20 20:43:00,27.7,16.0,30.59,NNE,15,0.0,0.0,62,0.00,,,0.00,weatherlink.com 1.10,2013-11-21 01:43:00,
2013-11-20 20:58:00,27.8,15.0,30.59,NNE,15,0.0,0.0,60,0.00,,,0.00,weatherlink.com 1.10,2013-11-21 01:58:00,
2013-11-20 21:13:00,27.3,16.0,30.59,NNE,15,0.0,0.0,63,0.00,,,0.00,weatherlink.com 1.10,2013-11-21 02:13:00,
2013-11-20 21:29:00,27.3,15.0,30.59,NNE,14,0.0,0.0,61,0.00,,,0.00,weatherlink.com 1.10,2013-11-21 02:29:00,
2013-11-20 21:44:00,27.3,15.0,30.60,NNE,13,0.0,0.0,60,0.00,,,0.00,weatherlink.com 1.10,2013-11-21 02:44:00,
2013-11-20 21:59:00,26.7,16.0,30.60,NNE,13,0.0,0.0,63,0.00,,,0.00,weatherlink.com 1.10,2013-11-21 02:59:00,
2013-11-20 22:14:00,26.4,16.0,30.60,NNE,13,0.0,1.0,64,0.00,,,0.00,weatherlink.com 1.10,2013-11-21 03:14:00,
2013-11-20 22:29:00,25.9,16.0,30.61,NNE,13,0.0,0.0,67,0.00,,,0.00,weatherlink.com 1.10,2013-11-21 03:29:00,
2013-11-20 22:44:00,25.2,16.0,30.61,NNE,13,0.0,0.0,68,0.00,,,0.00,weatherlink.com 1.10,2013-11-21 03:44:00,
2013-11-20 22:59:00,25.0,16.0,30.61,NNE,13,0.0,0.0,69,0.00,,,0.00,weatherlink.com 1.10,2013-11-21 03:59:00,
2013-11-20 23:14:00,24.8,17.0,30.62,NNE,13,0.0,0.0,71,0.00,,,0.00,weatherlink.com 1.10,2013-11-21 04:14:00,
2013-11-20 23:29:00,24.5,17.0,30.62,NNE,13,0.0,0.0,72,0.00,,,0.00,weatherlink.com 1.10,2013-11-21 04:29:00,
2013-11-20 23:44:00,24.2,16.0,30.62,NNE,13,0.0,0.0,72,0.00,,,0.00,weatherlink.com 1.10,2013-11-21 04:44:00,
2013-11-20 23:59:00,23.9,16.0,30.62,NNE,13,0.0,0.0,73,0.00,,,0.00,weatherlink.com 1.10,2013-11-21 04:59:00,